Time;durP1;ratioP1;P1;durP2;ratioP2;P2;SDS_P1;SDS_P2;PMS_P1;PMS_P2;Temp;Humidity;BMP_temperature;BMP_pressure;BME280_temperature;BME280_humidity;BME280_pressure;Samples;Min_cycle;Max_cycle;Signal;HPM_P1;HPM_P2
2020/12/17 00:04:01;;;;;;;62.75;36.03;;;;;;;8.59;80.62;100944.23;2898203;82;21138;-65
2020/12/17 00:08:06;;;;;;;64.92;43.48;;;;;;;8.53;80.78;100939.32;2897354;82;21165;-65
2020/12/17 00:12:09;;;;;;;77.55;41.13;;;;;;;8.44;81.04;100944.20;2898143;82;21608;-65
2020/12/17 00:16:13;;;;;;;62.95;36.13;;;;;;;8.39;81.40;100942.31;2897722;82;21198;-65
2020/12/17 00:20:41;;;;;;;78.37;46.58;;;;;;;8.37;81.61;100945.54;2897605;82;21102;-65
2020/12/17 00:24:44;;;;;;;60.25;40.48;;;;;;;8.40;81.65;100941.37;2828586;84;21478;-65
2020/12/17 00:28:46;;;;;;;71.12;45.08;;;;;;;8.38;81.56;100937.97;2857942;83;21551;-67
2020/12/17 00:32:49;;;;;;;62.17;40.70;;;;;;;8.34;81.67;100932.48;2853766;83;21169;-66
2020/12/17 00:36:54;;;;;;;67.55;40.35;;;;;;;8.27;81.71;100924.55;2851750;81;21141;-64
2020/12/17 00:40:57;;;;;;;62.53;39.05;;;;;;;8.23;81.84;100929.17;2845353;81;21154;-66
2020/12/17 00:45:00;;;;;;;62.00;39.92;;;;;;;8.20;82.02;100925.85;2813599;84;21723;-64
2020/12/17 00:49:03;;;;;;;63.35;38.60;;;;;;;8.19;82.11;100923.69;2813031;84;21613;-66
2020/12/17 00:53:06;;;;;;;53.75;36.28;;;;;;;8.24;82.10;100922.05;2819722;84;21307;-67
2020/12/17 00:57:11;;;;;;;55.67;37.15;;;;;;;8.32;81.87;100923.78;2807077;84;21643;-67
2020/12/17 01:01:15;;;;;;;54.90;38.95;;;;;;;8.39;81.41;100936.18;2798707;84;21615;-65
2020/12/17 01:05:18;;;;;;;62.98;36.93;;;;;;;8.35;80.89;100938.62;2866070;82;21164;-65
2020/12/17 01:09:21;;;;;;;62.53;39.35;;;;;;;8.31;80.86;100935.33;2869505;82;21164;-65
2020/12/17 01:13:25;;;;;;;62.85;35.23;;;;;;;8.24;80.95;100930.01;2866273;83;22282;-66
2020/12/17 01:17:28;;;;;;;66.45;40.78;;;;;;;8.23;81.05;100926.98;2866811;82;21629;-65
2020/12/17 01:21:31;;;;;;;60.65;38.38;;;;;;;8.22;81.02;100938.08;2851591;83;21151;-66
2020/12/17 01:25:34;;;;;;;60.98;36.30;;;;;;;8.17;81.08;100928.69;2831900;83;21159;-66
2020/12/17 01:29:37;;;;;;;59.13;36.80;;;;;;;8.15;81.17;100929.64;2832510;83;21183;-67
2020/12/17 01:33:42;;;;;;;67.12;39.58;;;;;;;8.15;81.22;100927.45;2832042;83;21557;-65
2020/12/17 01:37:45;;;;;;;54.25;37.65;;;;;;;8.13;81.22;100923.59;2831829;83;21593;-66
2020/12/17 01:41:48;;;;;;;52.08;34.90;;;;;;;8.12;81.13;100909.96;2831828;83;21163;-66
2020/12/17 01:45:53;;;;;;;51.37;34.58;;;;;;;8.07;81.14;100920.00;2831786;83;21179;-65
2020/12/17 01:49:56;;;;;;;57.90;34.53;;;;;;;7.92;81.67;100922.25;2832064;83;21195;-67
2020/12/17 01:54:00;;;;;;;58.02;34.55;;;;;;;7.82;82.14;100921.95;2832503;83;21166;-65
2020/12/17 01:58:07;;;;;;;48.63;30.72;;;;;;;7.79;82.42;100917.69;2832096;83;21108;-65
2020/12/17 02:02:12;;;;;;;65.25;36.03;;;;;;;7.75;82.50;100915.30;2832433;84;21183;-66
2020/12/17 02:06:17;;;;;;;56.65;36.65;;;;;;;7.71;82.71;100915.98;2832347;83;21625;-66
2020/12/17 02:10:20;;;;;;;55.25;32.78;;;;;;;7.68;82.83;100902.92;2824172;83;21212;-67
2020/12/17 02:14:24;;;;;;;55.17;32.65;;;;;;;7.64;83.15;100900.05;2842372;82;21169;-66
2020/12/17 02:18:28;;;;;;;55.23;32.03;;;;;;;7.66;83.32;100902.14;2799997;82;21159;-67
2020/12/17 02:22:32;;;;;;;53.45;32.28;;;;;;;7.71;83.29;100894.30;2794340;84;21631;-66
2020/12/17 02:26:35;;;;;;;41.92;28.45;;;;;;;7.81;82.97;100895.92;2820703;83;21230;-66
2020/12/17 02:30:40;;;;;;;47.58;28.30;;;;;;;7.78;82.76;100895.28;2808538;84;21605;-65
2020/12/17 02:34:45;;;;;;;48.05;28.62;;;;;;;7.74;82.74;100891.95;2808345;84;21135;-65
2020/12/17 02:38:49;;;;;;;39.80;27.40;;;;;;;7.73;82.77;100888.93;2808532;83;21642;-67
2020/12/17 02:42:54;;;;;;;46.73;28.83;;;;;;;7.74;82.62;100896.38;2889027;81;21589;-66
2020/12/17 02:46:58;;;;;;;44.58;29.15;;;;;;;7.77;82.42;100896.23;2891108;81;21155;-66
2020/12/17 02:51:02;;;;;;;45.00;28.90;;;;;;;7.77;82.28;100901.03;2808567;84;21151;-65
2020/12/17 02:55:06;;;;;;;44.58;26.33;;;;;;;7.82;82.21;100896.80;2808843;81;21163;-66
2020/12/17 02:59:10;;;;;;;47.17;29.82;;;;;;;7.85;82.05;100892.14;2824827;83;21149;-66
2020/12/17 03:03:14;;;;;;;49.35;31.62;;;;;;;7.88;81.80;100896.41;2847074;83;21608;-66
2020/12/17 03:07:17;;;;;;;39.27;25.32;;;;;;;7.89;81.69;100895.95;2863101;82;21155;-66
2020/12/17 03:11:21;;;;;;;46.75;29.57;;;;;;;7.88;81.64;100893.77;2855423;83;21170;-66
2020/12/17 03:15:26;;;;;;;39.08;28.55;;;;;;;7.92;81.61;100901.89;2857367;82;21180;-66
2020/12/17 03:19:30;;;;;;;40.63;27.22;;;;;;;7.92;81.46;100892.62;2869194;82;21167;-66
2020/12/17 03:23:33;;;;;;;47.33;30.32;;;;;;;7.90;81.54;100892.36;2843836;83;21187;-64
2020/12/17 03:27:37;;;;;;;39.73;27.80;;;;;;;7.91;81.65;100894.06;2832194;84;21613;-67
2020/12/17 03:31:41;;;;;;;43.17;28.52;;;;;;;7.89;81.55;100884.03;2796144;83;21141;-67
2020/12/17 03:35:44;;;;;;;41.33;26.02;;;;;;;7.92;81.58;100886.48;2832956;83;21126;-66
2020/12/17 03:39:48;;;;;;;46.25;31.95;;;;;;;7.93;81.66;100882.89;2797443;85;21678;-65
2020/12/17 03:43:52;;;;;;;43.05;27.35;;;;;;;7.94;81.65;100879.30;2805135;83;21674;-65
2020/12/17 03:47:58;;;;;;;46.92;28.90;;;;;;;7.91;81.57;100871.05;2854564;82;21181;-65
2020/12/17 03:52:02;;;;;;;39.27;25.57;;;;;;;7.86;81.77;100867.39;2854809;82;21169;-66
2020/12/17 03:56:06;;;;;;;41.13;26.02;;;;;;;7.84;81.82;100868.41;2823753;84;21646;-65
2020/12/17 04:00:10;;;;;;;47.15;27.87;;;;;;;7.85;81.84;100867.47;2862060;83;21152;-66
2020/12/17 04:04:12;;;;;;;35.52;24.67;;;;;;;7.83;81.76;100871.52;2854742;83;21095;-66
2020/12/17 04:08:18;;;;;;;41.20;28.15;;;;;;;7.82;81.79;100871.63;2854473;83;21512;-64
2020/12/17 04:12:21;;;;;;;37.15;26.10;;;;;;;7.84;81.70;100867.92;2854273;83;21101;-65
2020/12/17 04:16:26;;;;;;;41.13;26.70;;;;;;;7.81;81.57;100862.81;2854483;82;21623;-65
2020/12/17 04:20:29;;;;;;;35.85;26.75;;;;;;;7.81;81.45;100857.52;2862073;83;21160;-64
2020/12/17 04:24:33;;;;;;;43.23;27.70;;;;;;;7.77;81.46;100849.39;2869900;82;21156;-62
2020/12/17 04:28:36;;;;;;;45.20;26.57;;;;;;;7.68;81.64;100848.64;2873807;82;21156;-63
2020/12/17 04:32:40;;;;;;;38.40;27.07;;;;;;;7.62;81.92;100847.67;2874011;82;21120;-64
2020/12/17 04:36:43;;;;;;;40.10;24.32;;;;;;;7.61;82.17;100848.61;2865905;83;21132;-63
2020/12/17 04:40:49;;;;;;;46.53;26.68;;;;;;;7.61;82.16;100847.30;2870475;82;21160;-64
2020/12/17 04:44:54;;;;;;;45.38;28.60;;;;;;;7.51;82.13;100856.26;2839477;82;21611;-64
2020/12/17 04:48:59;;;;;;;42.65;26.25;;;;;;;7.40;82.65;100854.25;2865926;83;21086;-64
2020/12/17 04:53:05;;;;;;;43.68;27.48;;;;;;;7.33;83.02;100867.48;2874011;82;21168;-64
2020/12/17 04:57:15;;;;;;;46.37;27.80;;;;;;;7.34;83.20;100870.51;2838198;82;21136;-65
2020/12/17 05:01:19;;;;;;;41.58;26.65;;;;;;;7.33;83.47;100874.94;2828658;81;21625;-64
2020/12/17 05:05:24;;;;;;;52.40;30.68;;;;;;;7.35;83.36;100878.34;2873812;82;21157;-63
2020/12/17 05:09:32;;;;;;;37.42;25.82;;;;;;;7.31;83.66;100875.98;2825558;82;21791;-64
2020/12/17 05:13:36;;;;;;;37.90;23.38;;;;;;;7.36;83.54;100873.91;2804418;84;21196;-63
2020/12/17 05:17:49;;;;;;;38.83;23.92;;;;;;;7.41;83.57;100878.45;2873861;82;21450;-62
2020/12/17 05:21:55;;;;;;;45.50;27.32;;;;;;;7.43;83.32;100873.47;2822869;84;21586;-64
2020/12/17 05:25:58;;;;;;;62.00;39.50;;;;;;;7.40;83.06;100861.73;2823126;82;21137;-62
2020/12/17 05:30:04;;;;;;;55.63;34.23;;;;;;;7.38;82.88;100864.95;2778228;85;21157;-62
2020/12/17 05:34:08;;;;;;;49.65;32.05;;;;;;;7.32;82.58;100863.97;2772666;85;21163;-62
2020/12/17 05:38:12;;;;;;;44.27;27.37;;;;;;;7.15;82.37;100862.33;2777963;85;30868;-63
2020/12/17 05:42:16;;;;;;;47.27;28.42;;;;;;;7.07;82.93;100857.48;2773068;85;21203;-64
2020/12/17 05:46:36;;;;;;;44.23;28.80;;;;;;;7.11;83.02;100858.16;2755449;85;21160;-64
2020/12/17 05:50:57;;;;;;;43.40;27.20;;;;;;;7.11;82.71;100852.87;2772619;85;21175;-63
2020/12/17 05:55:01;;;;;;;39.90;27.45;;;;;;;7.04;82.37;100871.34;2778476;85;21208;-65
2020/12/17 05:59:06;;;;;;;44.88;30.05;;;;;;;6.86;82.08;100886.86;2808008;84;21174;-65
2020/12/17 06:03:12;;;;;;;42.90;30.25;;;;;;;6.80;82.73;100876.64;2763127;85;21180;-63
2020/12/17 06:07:17;;;;;;;40.33;27.25;;;;;;;6.86;82.63;100873.64;2731379;85;21601;-64
2020/12/17 06:11:23;;;;;;;41.58;29.02;;;;;;;6.86;82.15;100871.45;2800687;83;21205;-65
2020/12/17 06:15:31;;;;;;;44.58;32.45;;;;;;;6.81;82.15;100881.45;2794616;84;21124;-65
2020/12/17 06:19:37;;;;;;;53.58;36.28;;;;;;;6.73;82.40;100879.23;2799676;83;21177;-65
2020/12/17 06:23:42;;;;;;;72.95;41.02;;;;;;;6.63;82.94;100880.22;2796827;82;21732;-65
2020/12/17 06:27:50;;;;;;;55.50;37.23;;;;;;;6.57;83.43;100872.64;2802353;84;21139;-64
2020/12/17 06:32:17;;;;;;;72.70;39.85;;;;;;;6.50;83.73;100878.73;2873516;82;21161;-63
2020/12/17 06:36:41;;;;;;;65.08;41.63;;;;;;;6.44;83.96;100885.69;2749611;86;21170;-63
2020/12/17 06:40:45;;;;;;;66.20;43.40;;;;;;;6.42;83.96;100881.79;2771496;85;21160;-63
2020/12/17 06:44:50;;;;;;;74.40;43.78;;;;;;;6.38;84.23;100878.08;2755419;84;21601;-63
2020/12/17 06:48:54;;;;;;;71.07;44.48;;;;;;;6.36;84.28;100881.27;2743469;86;21147;-64
2020/12/17 06:53:10;;;;;;;63.55;40.45;;;;;;;6.30;84.58;100879.84;2725289;87;21562;-64
2020/12/17 06:57:18;;;;;;;69.75;41.80;;;;;;;6.25;84.80;100877.44;2710557;87;21177;-63
2020/12/17 07:01:24;;;;;;;67.47;46.85;;;;;;;6.22;84.99;100879.38;2809545;84;21141;-64
2020/12/17 07:05:36;;;;;;;65.30;41.18;;;;;;;6.10;85.17;100879.12;2806155;84;21522;-63
2020/12/17 07:09:41;;;;;;;72.03;41.33;;;;;;;6.00;85.66;100880.51;2770364;85;21103;-64
2020/12/17 07:13:45;;;;;;;65.47;39.75;;;;;;;5.92;86.02;100886.67;2770520;84;21215;-63
2020/12/17 07:17:50;;;;;;;65.72;36.93;;;;;;;5.88;86.10;100873.22;2770400;85;21191;-64
2020/12/17 07:22:04;;;;;;;65.65;41.13;;;;;;;5.79;86.40;100875.88;2749199;85;21179;-64
2020/12/17 07:26:13;;;;;;;75.42;40.67;;;;;;;5.77;86.69;100882.58;2770329;84;21151;-65
2020/12/17 07:30:18;;;;;;;77.15;43.52;;;;;;;5.70;86.72;100879.40;2770422;85;21167;-64
2020/12/17 07:34:22;;;;;;;69.00;40.92;;;;;;;5.65;86.86;100887.16;2761244;85;21182;-64
2020/12/17 07:38:26;;;;;;;65.97;34.55;;;;;;;5.61;87.03;100884.30;2769733;85;21660;-63
2020/12/17 07:42:31;;;;;;;64.15;39.48;;;;;;;5.65;87.13;100885.84;2767993;85;21178;-63
2020/12/17 07:46:40;;;;;;;61.05;41.18;;;;;;;5.70;87.23;100882.52;2770340;85;21160;-64
2020/12/17 07:50:43;;;;;;;61.20;37.53;;;;;;;5.78;87.45;100882.09;2770388;85;21141;-64
2020/12/17 07:54:48;;;;;;;76.00;43.90;;;;;;;5.90;87.44;100892.51;2770253;85;21165;-64
2020/12/17 07:58:52;;;;;;;67.40;37.98;;;;;;;6.04;87.24;100887.84;2770226;85;21199;-64
2020/12/17 08:02:57;;;;;;;62.88;38.53;;;;;;;6.10;87.15;100888.83;2770265;85;21184;-64
2020/12/17 08:07:08;;;;;;;63.30;39.20;;;;;;;6.16;87.19;100890.30;2770311;85;21200;-63
2020/12/17 08:11:12;;;;;;;60.92;36.33;;;;;;;6.26;87.04;100896.77;2770409;85;21446;-64
2020/12/17 08:15:15;;;;;;;46.73;32.38;;;;;;;6.35;86.70;100892.33;2770307;85;21121;-64
2020/12/17 08:19:20;;;;;;;52.23;31.97;;;;;;;6.48;86.26;100892.50;2770245;85;21181;-63
2020/12/17 08:23:27;;;;;;;45.63;26.95;;;;;;;6.61;85.55;100899.28;2770295;85;21184;-62
2020/12/17 08:27:32;;;;;;;45.48;27.35;;;;;;;6.76;84.73;100902.02;2770032;85;21636;-64
2020/12/17 08:31:36;;;;;;;47.17;27.17;;;;;;;6.80;84.04;100898.25;2770365;85;21161;-63
2020/12/17 08:35:41;;;;;;;47.53;28.55;;;;;;;6.84;83.49;100895.36;2754990;85;21194;-63
2020/12/17 08:39:46;;;;;;;37.75;24.87;;;;;;;6.96;83.48;100900.42;2749846;86;21508;-63
2020/12/17 08:43:53;;;;;;;42.30;21.45;;;;;;;7.05;83.06;100907.44;2749849;86;21201;-64
2020/12/17 08:47:59;;;;;;;38.48;24.30;;;;;;;7.12;82.79;100904.84;2749869;86;21232;-64
2020/12/17 08:52:03;;;;;;;48.10;25.97;;;;;;;7.20;82.29;100902.59;2749743;86;21632;-64
2020/12/17 08:56:20;;;;;;;84.13;48.63;;;;;;;7.25;81.73;100900.52;2749740;86;21232;-64
2020/12/17 09:00:24;;;;;;;63.85;37.53;;;;;;;7.35;81.39;100904.80;2748672;86;21611;-62
2020/12/17 09:04:29;;;;;;;106.32;58.45;;;;;;;7.43;81.20;100907.01;2750070;86;21205;-65
2020/12/17 09:08:34;;;;;;;75.45;39.85;;;;;;;7.51;80.66;100915.37;2750038;86;21169;-63
2020/12/17 09:12:37;;;;;;;79.95;44.42;;;;;;;7.66;80.55;100915.37;2749889;86;21182;-65
2020/12/17 09:16:43;;;;;;;31.52;21.70;;;;;;;7.81;79.91;100917.11;2749858;86;21202;-63
2020/12/17 09:20:48;;;;;;;31.57;20.40;;;;;;;7.92;78.75;100916.95;2749819;86;21563;-63
2020/12/17 09:24:54;;;;;;;24.05;16.80;;;;;;;8.02;78.42;100914.11;2728928;86;21201;-63
2020/12/17 09:29:02;;;;;;;24.63;18.02;;;;;;;8.10;77.36;100911.86;2749959;86;21138;-64
2020/12/17 09:33:05;;;;;;;25.32;19.67;;;;;;;8.21;77.54;100918.27;2748704;86;21182;-64
2020/12/17 09:37:12;;;;;;;28.38;15.43;;;;;;;8.28;76.74;100915.64;2732586;85;21207;-64
2020/12/17 09:41:17;;;;;;;;;;;;;;;8.35;76.24;100918.28;2734814;87;21176;-63
2020/12/17 09:45:21;;;;;;;24.37;15.13;;;;;;;8.43;75.41;100904.55;2732713;87;20168;-63
2020/12/17 09:49:31;;;;;;;33.65;21.30;;;;;;;8.46;75.13;100903.02;2732494;87;21672;-63
2020/12/17 09:53:39;;;;;;;25.48;14.58;;;;;;;8.54;75.26;100896.77;2731062;87;21200;-63
2020/12/17 09:57:45;;;;;;;26.10;16.12;;;;;;;8.50;74.23;100889.14;2732459;87;21148;-64
2020/12/17 10:01:55;;;;;;;28.07;19.12;;;;;;;8.47;74.45;100885.33;2732313;87;21634;-63
2020/12/17 10:05:59;;;;;;;25.27;17.12;;;;;;;8.48;74.88;100881.73;2732607;85;21192;-63
2020/12/17 10:10:05;;;;;;;21.80;15.13;;;;;;;8.57;74.63;100882.02;2732685;87;21175;-64
2020/12/17 10:14:11;;;;;;;24.40;15.75;;;;;;;8.63;74.90;100879.42;2732850;86;21173;-63
2020/12/17 10:18:15;;;;;;;22.20;14.78;;;;;;;8.76;73.65;100874.20;2732694;87;21180;-64
2020/12/17 10:22:20;;;;;;;24.27;15.65;;;;;;;8.85;73.64;100870.11;2732593;87;21196;-62
2020/12/17 10:26:24;;;;;;;28.17;15.95;;;;;;;8.93;73.57;100871.77;2733069;87;21167;-64
2020/12/17 10:30:28;;;;;;;20.17;16.40;;;;;;;8.98;72.84;100870.98;2732714;87;21172;-63
2020/12/17 10:34:32;;;;;;;20.08;14.93;;;;;;;9.12;73.07;100862.59;2737566;86;21153;-64
2020/12/17 10:38:58;;;;;;;17.20;10.78;;;;;;;9.11;72.21;100870.18;2750213;86;21169;-62
2020/12/17 10:43:02;;;;;;;18.10;14.47;;;;;;;9.12;72.04;100877.19;2677633;88;21136;-64
2020/12/17 10:47:06;;;;;;;21.55;13.25;;;;;;;9.11;71.72;100868.85;2678069;88;21184;-64
2020/12/17 10:51:12;;;;;;;17.12;12.45;;;;;;;9.20;72.06;100858.94;2677902;88;21148;-65
2020/12/17 10:55:16;;;;;;;62.62;34.83;;;;;;;9.25;71.83;100859.50;2678013;88;21514;-64
2020/12/17 10:59:23;;;;;;;53.70;29.50;;;;;;;9.25;71.01;100868.80;2678015;88;21179;-65
2020/12/17 11:03:28;;;;;;;18.90;12.15;;;;;;;9.21;71.10;100840.72;2678145;88;21192;-63
2020/12/17 11:07:32;;;;;;;22.67;15.95;;;;;;;9.20;70.77;100840.84;2686965;87;21162;-64
2020/12/17 11:11:36;;;;;;;21.23;14.85;;;;;;;9.18;71.43;100852.05;2657848;89;21213;-64
2020/12/17 11:15:39;;;;;;;30.60;23.15;;;;;;;9.19;71.24;100839.98;2708243;87;21172;-63
2020/12/17 11:19:43;;;;;;;24.60;17.48;;;;;;;9.22;70.93;100839.77;2678221;88;21662;-63
2020/12/17 11:23:47;;;;;;;31.60;22.07;;;;;;;9.21;70.82;100837.23;2678621;88;21200;-64
2020/12/17 11:27:51;;;;;;;31.42;18.87;;;;;;;9.24;70.74;100831.25;2730807;87;21663;-64
2020/12/17 11:31:55;;;;;;;28.65;19.10;;;;;;;9.19;70.57;100821.89;2730089;87;21150;-64
2020/12/17 11:36:00;;;;;;;24.63;18.80;;;;;;;9.26;71.12;100818.72;2706683;87;21182;-63
2020/12/17 11:40:04;;;;;;;27.62;16.12;;;;;;;9.29;70.61;100814.99;2661124;87;21243;-63
2020/12/17 11:44:09;;;;;;;32.35;21.23;;;;;;;9.25;70.08;100809.52;2723184;87;21671;-64
2020/12/17 11:48:12;;;;;;;24.82;14.98;;;;;;;9.27;70.76;100807.15;2723386;87;21639;-62
2020/12/17 11:52:17;;;;;;;21.48;14.33;;;;;;;9.28;70.08;100811.97;2723401;87;21181;-63
2020/12/17 11:56:21;;;;;;;36.75;22.87;;;;;;;9.25;69.88;100804.22;2742546;86;21145;-62
2020/12/17 12:00:25;;;;;;;23.05;14.80;;;;;;;9.24;69.94;100796.75;2750145;86;21457;-63
2020/12/17 12:04:29;;;;;;;17.48;12.58;;;;;;;9.32;70.50;100794.03;2749961;86;21169;-64
2020/12/17 12:08:34;;;;;;;18.00;11.95;;;;;;;9.31;69.59;100796.31;2750018;86;21181;-64
2020/12/17 12:12:39;;;;;;;20.60;14.58;;;;;;;9.36;70.25;100810.12;2750237;86;21178;-64
2020/12/17 12:16:43;;;;;;;27.15;13.85;;;;;;;9.42;69.84;100816.33;2686326;86;21209;-64
2020/12/17 12:20:47;;;;;;;29.30;16.65;;;;;;;9.41;69.33;100815.95;2708037;86;21160;-62
2020/12/17 12:24:51;;;;;;;17.67;13.05;;;;;;;9.41;69.66;100818.61;2723536;86;21172;-62
2020/12/17 12:28:55;;;;;;;27.85;16.70;;;;;;;9.39;69.34;100822.72;2723334;86;21200;-64
2020/12/17 12:33:01;;;;;;;33.38;20.12;;;;;;;9.34;70.12;100822.19;2723104;87;21241;-63
2020/12/17 12:37:05;;;;;;;30.48;21.33;;;;;;;9.34;70.28;100826.63;2736649;86;21632;-64
2020/12/17 12:41:10;;;;;;;21.37;14.43;;;;;;;9.34;70.81;100822.65;2751275;86;21189;-63
2020/12/17 12:45:13;;;;;;;21.62;15.53;;;;;;;9.39;71.29;100824.05;2753496;86;21205;-63
2020/12/17 12:49:23;;;;;;;22.70;16.48;;;;;;;9.44;69.75;100817.09;2741318;85;21650;-65
2020/12/17 12:53:27;;;;;;;16.57;11.85;;;;;;;9.50;69.55;100811.81;2745674;86;21110;-63
2020/12/17 12:57:31;;;;;;;20.90;13.98;;;;;;;9.54;69.10;100809.34;2753519;86;21177;-61
2020/12/17 13:01:45;;;;;;;19.07;12.37;;;;;;;9.50;69.17;100803.38;2753438;86;21133;-64
2020/12/17 13:05:49;;;;;;;19.40;12.78;;;;;;;9.43;69.17;100792.80;2753306;86;21133;-63
2020/12/17 13:09:56;;;;;;;16.70;10.78;;;;;;;9.33;69.53;100795.73;2753380;86;21177;-64
2020/12/17 13:14:01;;;;;;;18.35;12.18;;;;;;;9.25;69.47;100802.89;2753650;86;21189;-63
2020/12/17 13:18:05;;;;;;;23.65;16.32;;;;;;;9.24;69.70;100802.05;2752455;85;21172;-62
2020/12/17 13:22:11;;;;;;;33.98;17.65;;;;;;;9.21;69.87;100808.03;2753519;86;21137;-63
2020/12/17 13:26:15;;;;;;;25.92;15.48;;;;;;;9.12;70.32;100814.32;2753674;86;21189;-63
2020/12/17 13:30:21;;;;;;;19.62;14.70;;;;;;;9.03;70.43;100823.37;2753836;86;21170;-63
2020/12/17 13:34:25;;;;;;;20.80;14.83;;;;;;;8.98;70.49;100825.88;2753799;86;21137;-62
2020/12/17 13:38:29;;;;;;;19.75;14.07;;;;;;;8.92;70.27;100824.09;2731059;86;21210;-64
2020/12/17 13:42:34;;;;;;;21.82;14.70;;;;;;;8.86;70.46;100825.38;2743038;86;21182;-61
2020/12/17 13:46:37;;;;;;;23.92;14.78;;;;;;;8.81;70.06;100815.06;2749738;86;21181;-67
2020/12/17 13:50:42;;;;;;;30.85;17.80;;;;;;;8.70;69.82;100815.77;2750104;86;21210;-68
2020/12/17 13:54:46;;;;;;;35.03;22.22;;;;;;;8.59;70.00;100829.36;2749917;86;21165;-66
2020/12/17 13:58:50;;;;;;;31.52;18.30;;;;;;;8.44;70.32;100832.84;2749849;86;21185;-63
2020/12/17 14:02:54;;;;;;;27.45;21.52;;;;;;;8.32;70.30;100825.70;2749333;86;22256;-63
2020/12/17 14:07:00;;;;;;;40.63;24.43;;;;;;;8.25;70.71;100830.53;2749542;86;21158;-66
2020/12/17 14:11:04;;;;;;;45.33;25.88;;;;;;;8.19;70.94;100814.16;2749629;86;21110;-65
2020/12/17 14:15:30;;;;;;;31.62;22.17;;;;;;;8.10;71.56;100816.46;2749733;86;21166;-66
2020/12/17 14:19:36;;;;;;;31.13;23.73;;;;;;;8.06;71.71;100816.75;2776495;85;21636;-65
2020/12/17 14:23:39;;;;;;;33.60;24.87;;;;;;;7.96;71.98;100825.74;2733755;87;21162;-66
2020/12/17 14:27:44;;;;;;;32.60;21.75;;;;;;;7.86;71.93;100830.30;2759753;84;21158;-67
2020/12/17 14:31:49;;;;;;;56.23;36.53;;;;;;;7.80;72.17;100829.33;2776662;85;21181;-65
2020/12/17 14:35:52;;;;;;;53.05;42.25;;;;;;;7.72;72.36;100827.16;2727436;87;21154;-63
2020/12/17 14:39:56;;;;;;;40.78;29.45;;;;;;;7.66;72.58;100823.56;2740314;84;21216;-63
2020/12/17 14:43:59;;;;;;;71.20;47.88;;;;;;;7.58;72.75;100810.79;2748167;84;21168;-64
2020/12/17 14:48:03;;;;;;;50.90;36.23;;;;;;;7.51;72.84;100797.56;2728774;87;21149;-64
2020/12/17 14:52:08;;;;;;;34.73;22.60;;;;;;;7.39;73.18;100806.23;2728708;86;21164;-66
2020/12/17 14:56:11;;;;;;;40.33;23.25;;;;;;;7.26;73.36;100816.22;2760071;85;21129;-65
2020/12/17 15:00:16;;;;;;;52.08;34.78;;;;;;;7.21;73.60;100822.75;2774091;85;21144;-65
2020/12/17 15:04:21;;;;;;;51.85;31.65;;;;;;;7.12;73.69;100842.66;2774299;85;21193;-67
2020/12/17 15:08:24;;;;;;;29.20;21.87;;;;;;;7.08;73.74;100853.05;2771829;84;21211;-66
2020/12/17 15:12:29;;;;;;;34.63;24.20;;;;;;;7.07;73.72;100860.58;2765870;84;21158;-64
2020/12/17 15:16:33;;;;;;;39.23;26.97;;;;;;;7.05;73.74;100862.46;2781114;84;21655;-65
2020/12/17 15:21:03;;;;;;;61.18;32.67;;;;;;;7.04;73.78;100860.76;2792507;84;21428;-65
2020/12/17 15:25:09;;;;;;;85.75;54.77;;;;;;;7.01;73.86;100864.45;2777312;84;21189;-64
2020/12/17 15:29:13;;;;;;;56.83;38.25;;;;;;;6.91;73.92;100854.88;2762076;86;21219;-64
2020/12/17 15:33:18;;;;;;;47.45;31.27;;;;;;;6.79;74.16;100849.82;2762218;86;21197;-62
2020/12/17 15:37:24;;;;;;;47.23;28.80;;;;;;;6.64;74.29;100862.58;2762312;86;21216;-63
2020/12/17 15:41:28;;;;;;;54.08;33.67;;;;;;;6.60;74.38;100880.39;2762614;86;21149;-62
2020/12/17 15:45:31;;;;;;;64.27;42.83;;;;;;;6.51;74.43;100876.47;2762200;86;21184;-63
2020/12/17 15:49:35;;;;;;;85.85;51.92;;;;;;;6.41;74.84;100873.97;2762219;86;21185;-64
2020/12/17 15:53:43;;;;;;;82.05;54.75;;;;;;;6.37;75.15;100869.31;2762689;86;21209;-62
2020/12/17 15:57:47;;;;;;;60.60;31.62;;;;;;;6.28;75.37;100875.95;2762228;86;21192;-62
2020/12/17 16:01:56;;;;;;;51.77;28.52;;;;;;;6.27;75.69;100878.66;2762096;86;21145;-62
2020/12/17 16:06:00;;;;;;;35.33;21.23;;;;;;;6.23;75.75;100880.64;2762181;86;21725;-63
2020/12/17 16:10:07;;;;;;;30.97;19.23;;;;;;;6.18;75.83;100880.49;2761070;86;21117;-62
2020/12/17 16:14:11;;;;;;;24.83;17.00;;;;;;;6.07;76.13;100887.19;2762801;86;21145;-62
2020/12/17 16:18:15;;;;;;;25.12;17.50;;;;;;;5.97;76.52;100885.47;2754946;85;21222;-64
2020/12/17 16:22:21;;;;;;;21.60;15.95;;;;;;;5.90;76.82;100887.23;2749183;86;21173;-65
2020/12/17 16:26:24;;;;;;;25.17;16.80;;;;;;;5.83;77.03;100887.53;2749572;86;21177;-62
2020/12/17 16:30:29;;;;;;;31.35;17.15;;;;;;;5.76;77.25;100894.08;2749762;86;21938;-62
2020/12/17 16:34:35;;;;;;;21.33;13.35;;;;;;;5.74;77.39;100899.91;2749165;86;21178;-62
2020/12/17 16:38:39;;;;;;;;;;;;;;;5.71;77.29;100907.98;2751547;86;21177;-63
2020/12/17 16:42:43;;;;;;;27.45;15.35;;;;;;;5.63;77.55;100911.47;2749624;86;20196;-64
2020/12/17 16:46:54;;;;;;;26.95;17.85;;;;;;;5.60;77.62;100919.55;2748791;86;21213;-65
2020/12/17 16:50:58;;;;;;;21.10;16.45;;;;;;;5.54;77.78;100912.79;2764812;85;21606;-64
2020/12/17 16:55:05;;;;;;;24.57;15.95;;;;;;;5.49;77.94;100910.38;2771385;85;21200;-63
2020/12/17 16:59:08;;;;;;;24.90;19.35;;;;;;;5.44;78.06;100907.13;2771366;85;21177;-62
2020/12/17 17:03:13;;;;;;;38.42;23.32;;;;;;;5.45;78.05;100896.95;2771591;85;21221;-62
2020/12/17 17:07:18;;;;;;;48.98;30.27;;;;;;;5.46;77.95;100894.70;2771450;85;21165;-65
2020/12/17 17:11:23;;;;;;;48.68;34.00;;;;;;;5.46;77.96;100899.14;2771293;85;21176;-64
2020/12/17 17:15:27;;;;;;;54.42;30.65;;;;;;;5.49;77.78;100912.17;2771603;85;21189;-63
2020/12/17 17:19:32;;;;;;;38.20;26.15;;;;;;;5.50;77.68;100911.23;2801046;84;21185;-64
2020/12/17 17:23:36;;;;;;;33.80;23.00;;;;;;;5.47;77.41;100927.23;2808716;84;21193;-63
2020/12/17 17:27:41;;;;;;;31.73;21.95;;;;;;;5.45;77.62;100931.26;2808598;84;21722;-64
2020/12/17 17:31:45;;;;;;;30.32;21.62;;;;;;;5.42;77.58;100934.92;2735793;87;21162;-62
2020/12/17 17:35:50;;;;;;;33.23;22.75;;;;;;;5.40;77.66;100928.87;2811552;84;21129;-66
2020/12/17 17:39:54;;;;;;;22.27;16.35;;;;;;;5.38;77.71;100932.50;2808589;84;21649;-65
2020/12/17 17:43:58;;;;;;;19.23;13.13;;;;;;;5.43;77.57;100928.71;2808812;84;21121;-66
2020/12/17 17:48:03;;;;;;;22.13;15.08;;;;;;;5.52;77.66;100933.13;2807774;84;21169;-64
2020/12/17 17:52:07;;;;;;;18.90;14.58;;;;;;;5.62;77.49;100936.16;2807921;84;21612;-64
2020/12/17 17:56:11;;;;;;;25.12;15.10;;;;;;;5.65;77.27;100943.46;2807849;84;21197;-63
2020/12/17 18:04:33;;;;;;;27.50;17.30;;;;;;;5.74;76.92;100945.23;2894791;81;21756;-65
2020/12/17 18:08:49;;;;;;;27.17;19.80;;;;;;;5.80;76.76;100947.09;2883861;81;21196;-65
2020/12/17 18:12:54;;;;;;;24.90;16.85;;;;;;;5.82;76.86;100962.39;2842089;82;21150;-63
2020/12/17 18:17:02;;;;;;;21.33;16.75;;;;;;;5.87;76.45;100950.28;2800298;84;21190;-65
2020/12/17 18:21:06;;;;;;;29.30;17.12;;;;;;;5.88;76.30;100956.41;2873522;81;21154;-65
2020/12/17 18:25:11;;;;;;;27.48;17.95;;;;;;;5.87;76.37;100946.32;2888063;81;21121;-65
2020/12/17 18:29:15;;;;;;;27.95;19.23;;;;;;;5.90;76.39;100954.56;2886408;81;21177;-65
2020/12/17 18:33:18;;;;;;;28.52;19.02;;;;;;;5.93;76.67;100959.20;2765920;84;21163;-65
2020/12/17 18:37:24;;;;;;;31.12;20.00;;;;;;;5.96;76.79;100956.39;2805472;84;21238;-64
2020/12/17 18:41:28;;;;;;;33.13;20.60;;;;;;;6.04;76.79;100967.91;2783059;84;21643;-65
2020/12/17 18:45:32;;;;;;;27.73;17.55;;;;;;;6.12;76.52;100960.92;2773171;85;21185;-66
2020/12/17 18:49:36;;;;;;;26.68;19.77;;;;;;;6.10;76.17;100964.98;2793134;84;21326;-65
2020/12/17 18:53:41;;;;;;;25.37;18.70;;;;;;;6.15;76.09;100967.36;2817048;84;21181;-65